sensor_id;sensor_type;location;lat;lon;timestamp;P1;durP1;ratioP1;P2;durP2;ratioP2
18159;SDS011;9205;52.032;4.314;2022-11-22T00:00:44;3.20;;;1.63;;
18159;SDS011;9205;52.032;4.314;2022-11-22T00:03:11;3.67;;;1.73;;
18159;SDS011;9205;52.032;4.314;2022-11-22T00:05:38;3.10;;;1.70;;
18159;SDS011;9205;52.032;4.314;2022-11-22T00:08:06;4.07;;;1.97;;
18159;SDS011;9205;52.032;4.314;2022-11-22T00:10:33;2.00;;;1.50;;
18159;SDS011;9205;52.032;4.314;2022-11-22T00:13:01;4.43;;;1.40;;
18159;SDS011;9205;52.032;4.314;2022-11-22T00:15:29;3.70;;;1.60;;
18159;SDS011;9205;52.032;4.314;2022-11-22T00:17:58;5.87;;;2.00;;
18159;SDS011;9205;52.032;4.314;2022-11-22T00:20:25;2.90;;;1.30;;
18159;SDS011;9205;52.032;4.314;2022-11-22T00:22:53;3.20;;;1.70;;
18159;SDS011;9205;52.032;4.314;2022-11-22T00:25:22;2.13;;;1.37;;
18159;SDS011;9205;52.032;4.314;2022-11-22T00:27:49;3.77;;;1.77;;
18159;SDS011;9205;52.032;4.314;2022-11-22T00:30:17;8.07;;;1.20;;
18159;SDS011;9205;52.032;4.314;2022-11-22T00:32:44;3.13;;;1.67;;
18159;SDS011;9205;52.032;4.314;2022-11-22T00:35:12;3.83;;;1.40;;
18159;SDS011;9205;52.032;4.314;2022-11-22T00:37:40;3.00;;;1.80;;
18159;SDS011;9205;52.032;4.314;2022-11-22T00:40:08;3.90;;;1.43;;
18159;SDS011;9205;52.032;4.314;2022-11-22T00:42:36;1.87;;;1.53;;
18159;SDS011;9205;52.032;4.314;2022-11-22T00:45:04;2.13;;;1.40;;
18159;SDS011;9205;52.032;4.314;2022-11-22T00:47:32;3.00;;;1.70;;
18159;SDS011;9205;52.032;4.314;2022-11-22T00:49:59;2.43;;;1.43;;
18159;SDS011;9205;52.032;4.314;2022-11-22T00:52:28;5.60;;;2.10;;
18159;SDS011;9205;52.032;4.314;2022-11-22T00:54:55;2.70;;;1.43;;
18159;SDS011;9205;52.032;4.314;2022-11-22T00:57:23;5.50;;;1.23;;
18159;SDS011;9205;52.032;4.314;2022-11-22T00:59:50;4.60;;;1.30;;
18159;SDS011;9205;52.032;4.314;2022-11-22T01:02:17;3.63;;;1.20;;
18159;SDS011;9205;52.032;4.314;2022-11-22T01:04:44;3.20;;;1.50;;
18159;SDS011;9205;52.032;4.314;2022-11-22T01:07:12;4.77;;;1.50;;
18159;SDS011;9205;52.032;4.314;2022-11-22T01:09:40;4.00;;;1.50;;
18159;SDS011;9205;52.032;4.314;2022-11-22T01:12:08;2.17;;;1.20;;
18159;SDS011;9205;52.032;4.314;2022-11-22T01:14:35;3.13;;;1.60;;
18159;SDS011;9205;52.032;4.314;2022-11-22T01:17:02;7.77;;;1.87;;
18159;SDS011;9205;52.032;4.314;2022-11-22T01:19:30;9.57;;;1.83;;
18159;SDS011;9205;52.032;4.314;2022-11-22T01:21:57;3.70;;;1.53;;
18159;SDS011;9205;52.032;4.314;2022-11-22T01:24:24;3.93;;;1.10;;
18159;SDS011;9205;52.032;4.314;2022-11-22T01:26:54;4.20;;;1.27;;
18159;SDS011;9205;52.032;4.314;2022-11-22T01:29:21;4.80;;;1.63;;
18159;SDS011;9205;52.032;4.314;2022-11-22T01:31:49;4.50;;;1.40;;
18159;SDS011;9205;52.032;4.314;2022-11-22T01:34:16;5.03;;;1.40;;
18159;SDS011;9205;52.032;4.314;2022-11-22T01:36:43;2.97;;;1.40;;
18159;SDS011;9205;52.032;4.314;2022-11-22T01:39:10;4.93;;;1.43;;
18159;SDS011;9205;52.032;4.314;2022-11-22T01:41:37;3.37;;;1.30;;
18159;SDS011;9205;52.032;4.314;2022-11-22T01:44:19;5.57;;;1.00;;
18159;SDS011;9205;52.032;4.314;2022-11-22T01:46:50;6.73;;;1.53;;
18159;SDS011;9205;52.032;4.314;2022-11-22T01:49:22;1.53;;;1.00;;
18159;SDS011;9205;52.032;4.314;2022-11-22T01:51:55;3.67;;;1.33;;
18159;SDS011;9205;52.032;4.314;2022-11-22T01:54:28;2.43;;;1.10;;
18159;SDS011;9205;52.032;4.314;2022-11-22T01:57:00;1.63;;;1.10;;
18159;SDS011;9205;52.032;4.314;2022-11-22T01:59:34;4.80;;;1.47;;
18159;SDS011;9205;52.032;4.314;2022-11-22T02:02:08;9.43;;;1.60;;
18159;SDS011;9205;52.032;4.314;2022-11-22T02:04:36;3.30;;;1.10;;
18159;SDS011;9205;52.032;4.314;2022-11-22T02:07:06;7.33;;;1.60;;
18159;SDS011;9205;52.032;4.314;2022-11-22T02:09:40;1.87;;;1.03;;
18159;SDS011;9205;52.032;4.314;2022-11-22T02:12:09;4.77;;;1.00;;
18159;SDS011;9205;52.032;4.314;2022-11-22T02:14:39;3.53;;;1.00;;
18159;SDS011;9205;52.032;4.314;2022-11-22T02:17:08;5.73;;;1.20;;
18159;SDS011;9205;52.032;4.314;2022-11-22T02:19:39;4.33;;;1.13;;
18159;SDS011;9205;52.032;4.314;2022-11-22T02:22:12;11.03;;;1.37;;
18159;SDS011;9205;52.032;4.314;2022-11-22T02:24:52;1.70;;;1.00;;
18159;SDS011;9205;52.032;4.314;2022-11-22T02:27:28;4.00;;;1.37;;
18159;SDS011;9205;52.032;4.314;2022-11-22T02:29:55;3.57;;;1.57;;
18159;SDS011;9205;52.032;4.314;2022-11-22T02:32:23;4.30;;;1.37;;
18159;SDS011;9205;52.032;4.314;2022-11-22T02:34:50;5.63;;;1.80;;
18159;SDS011;9205;52.032;4.314;2022-11-22T02:37:21;4.07;;;0.83;;
18159;SDS011;9205;52.032;4.314;2022-11-22T02:39:55;3.60;;;1.53;;
18159;SDS011;9205;52.032;4.314;2022-11-22T02:42:25;5.10;;;1.33;;
18159;SDS011;9205;52.032;4.314;2022-11-22T02:44:56;2.43;;;1.10;;
18159;SDS011;9205;52.032;4.314;2022-11-22T02:47:23;2.87;;;0.80;;
18159;SDS011;9205;52.032;4.314;2022-11-22T02:49:51;5.00;;;1.00;;
18159;SDS011;9205;52.032;4.314;2022-11-22T02:52:18;5.00;;;1.07;;
18159;SDS011;9205;52.032;4.314;2022-11-22T02:54:46;5.70;;;1.23;;
18159;SDS011;9205;52.032;4.314;2022-11-22T02:57:13;1.70;;;1.00;;
18159;SDS011;9205;52.032;4.314;2022-11-22T02:59:41;5.60;;;1.30;;
18159;SDS011;9205;52.032;4.314;2022-11-22T03:02:08;4.43;;;0.90;;
18159;SDS011;9205;52.032;4.314;2022-11-22T03:04:36;6.23;;;1.00;;
18159;SDS011;9205;52.032;4.314;2022-11-22T03:07:03;1.30;;;0.73;;
18159;SDS011;9205;52.032;4.314;2022-11-22T03:09:31;1.80;;;0.90;;
18159;SDS011;9205;52.032;4.314;2022-11-22T03:11:58;4.27;;;1.10;;
18159;SDS011;9205;52.032;4.314;2022-11-22T03:14:26;1.47;;;0.97;;
18159;SDS011;9205;52.032;4.314;2022-11-22T03:16:54;7.40;;;1.20;;
18159;SDS011;9205;52.032;4.314;2022-11-22T03:19:21;8.87;;;1.40;;
18159;SDS011;9205;52.032;4.314;2022-11-22T03:21:49;1.77;;;1.03;;
18159;SDS011;9205;52.032;4.314;2022-11-22T03:24:16;5.90;;;1.23;;
18159;SDS011;9205;52.032;4.314;2022-11-22T03:26:45;2.47;;;1.20;;
18159;SDS011;9205;52.032;4.314;2022-11-22T03:29:14;4.33;;;1.03;;
18159;SDS011;9205;52.032;4.314;2022-11-22T03:31:41;3.37;;;1.37;;
18159;SDS011;9205;52.032;4.314;2022-11-22T03:34:11;5.30;;;0.80;;
18159;SDS011;9205;52.032;4.314;2022-11-22T03:36:38;3.03;;;0.67;;
18159;SDS011;9205;52.032;4.314;2022-11-22T03:39:05;7.87;;;1.30;;
18159;SDS011;9205;52.032;4.314;2022-11-22T03:41:33;3.03;;;1.07;;
18159;SDS011;9205;52.032;4.314;2022-11-22T03:44:00;5.53;;;0.87;;
18159;SDS011;9205;52.032;4.314;2022-11-22T03:46:28;3.53;;;0.90;;
18159;SDS011;9205;52.032;4.314;2022-11-22T03:48:55;4.30;;;1.33;;
18159;SDS011;9205;52.032;4.314;2022-11-22T03:51:24;1.60;;;1.20;;
18159;SDS011;9205;52.032;4.314;2022-11-22T03:53:52;1.10;;;0.60;;
18159;SDS011;9205;52.032;4.314;2022-11-22T03:56:19;4.00;;;0.80;;
18159;SDS011;9205;52.032;4.314;2022-11-22T03:58:47;2.00;;;0.70;;
18159;SDS011;9205;52.032;4.314;2022-11-22T04:01:14;1.80;;;1.20;;
18159;SDS011;9205;52.032;4.314;2022-11-22T04:03:41;1.97;;;1.17;;
18159;SDS011;9205;52.032;4.314;2022-11-22T04:06:08;2.87;;;1.00;;
18159;SDS011;9205;52.032;4.314;2022-11-22T04:08:37;2.40;;;1.00;;
18159;SDS011;9205;52.032;4.314;2022-11-22T04:11:04;1.17;;;0.90;;
18159;SDS011;9205;52.032;4.314;2022-11-22T04:13:31;2.63;;;0.80;;
18159;SDS011;9205;52.032;4.314;2022-11-22T04:16:12;2.67;;;0.90;;
18159;SDS011;9205;52.032;4.314;2022-11-22T04:18:39;2.47;;;0.80;;
18159;SDS011;9205;52.032;4.314;2022-11-22T04:21:06;2.00;;;0.90;;
18159;SDS011;9205;52.032;4.314;2022-11-22T04:23:52;1.10;;;0.80;;
18159;SDS011;9205;52.032;4.314;2022-11-22T04:26:34;0.97;;;0.70;;
18159;SDS011;9205;52.032;4.314;2022-11-22T04:29:01;2.33;;;0.80;;
18159;SDS011;9205;52.032;4.314;2022-11-22T04:31:29;1.20;;;0.83;;
18159;SDS011;9205;52.032;4.314;2022-11-22T04:34:14;5.13;;;0.93;;
18159;SDS011;9205;52.032;4.314;2022-11-22T04:36:41;3.63;;;1.20;;
18159;SDS011;9205;52.032;4.314;2022-11-22T04:39:10;1.60;;;0.80;;
18159;SDS011;9205;52.032;4.314;2022-11-22T04:41:37;5.73;;;1.87;;
18159;SDS011;9205;52.032;4.314;2022-11-22T04:44:04;1.80;;;0.90;;
18159;SDS011;9205;52.032;4.314;2022-11-22T04:46:49;3.40;;;0.97;;
18159;SDS011;9205;52.032;4.314;2022-11-22T04:49:16;3.50;;;1.20;;
18159;SDS011;9205;52.032;4.314;2022-11-22T04:51:43;1.83;;;1.00;;
18159;SDS011;9205;52.032;4.314;2022-11-22T04:54:29;6.13;;;1.73;;
18159;SDS011;9205;52.032;4.314;2022-11-22T04:56:56;5.07;;;0.90;;
18159;SDS011;9205;52.032;4.314;2022-11-22T04:59:23;2.77;;;1.10;;
18159;SDS011;9205;52.032;4.314;2022-11-22T05:01:51;5.27;;;1.67;;
18159;SDS011;9205;52.032;4.314;2022-11-22T05:04:18;5.37;;;1.67;;
18159;SDS011;9205;52.032;4.314;2022-11-22T05:06:45;4.30;;;1.33;;
18159;SDS011;9205;52.032;4.314;2022-11-22T05:09:12;4.43;;;1.20;;
18159;SDS011;9205;52.032;4.314;2022-11-22T05:11:42;3.43;;;1.20;;
18159;SDS011;9205;52.032;4.314;2022-11-22T05:14:09;3.27;;;1.00;;
18159;SDS011;9205;52.032;4.314;2022-11-22T05:16:37;2.33;;;1.17;;
18159;SDS011;9205;52.032;4.314;2022-11-22T05:19:04;3.03;;;1.30;;
18159;SDS011;9205;52.032;4.314;2022-11-22T05:21:31;3.90;;;1.57;;
18159;SDS011;9205;52.032;4.314;2022-11-22T05:24:01;4.87;;;1.60;;
18159;SDS011;9205;52.032;4.314;2022-11-22T05:26:29;6.90;;;1.40;;
18159;SDS011;9205;52.032;4.314;2022-11-22T05:29:02;2.03;;;1.30;;
18159;SDS011;9205;52.032;4.314;2022-11-22T05:31:31;4.67;;;1.40;;
18159;SDS011;9205;52.032;4.314;2022-11-22T05:34:00;2.43;;;1.40;;
18159;SDS011;9205;52.032;4.314;2022-11-22T05:36:29;2.80;;;1.40;;
18159;SDS011;9205;52.032;4.314;2022-11-22T05:38:58;6.93;;;1.57;;
18159;SDS011;9205;52.032;4.314;2022-11-22T05:41:26;2.80;;;1.43;;
18159;SDS011;9205;52.032;4.314;2022-11-22T05:43:53;3.23;;;1.40;;
18159;SDS011;9205;52.032;4.314;2022-11-22T05:46:24;4.10;;;1.53;;
18159;SDS011;9205;52.032;4.314;2022-11-22T05:48:54;1.27;;;1.07;;
18159;SDS011;9205;52.032;4.314;2022-11-22T05:51:24;3.87;;;1.40;;
18159;SDS011;9205;52.032;4.314;2022-11-22T05:53:54;3.80;;;1.17;;
18159;SDS011;9205;52.032;4.314;2022-11-22T05:56:21;2.87;;;1.30;;
18159;SDS011;9205;52.032;4.314;2022-11-22T05:58:49;1.60;;;1.10;;
18159;SDS011;9205;52.032;4.314;2022-11-22T06:01:17;2.87;;;1.47;;
18159;SDS011;9205;52.032;4.314;2022-11-22T06:03:48;3.43;;;1.53;;
18159;SDS011;9205;52.032;4.314;2022-11-22T06:06:16;3.80;;;1.70;;
18159;SDS011;9205;52.032;4.314;2022-11-22T06:08:44;4.47;;;1.70;;
18159;SDS011;9205;52.032;4.314;2022-11-22T06:11:13;2.53;;;1.60;;
18159;SDS011;9205;52.032;4.314;2022-11-22T06:13:43;1.63;;;1.40;;
18159;SDS011;9205;52.032;4.314;2022-11-22T06:16:12;2.50;;;1.60;;
18159;SDS011;9205;52.032;4.314;2022-11-22T06:18:40;2.23;;;1.53;;
18159;SDS011;9205;52.032;4.314;2022-11-22T06:21:10;3.60;;;1.70;;
18159;SDS011;9205;52.032;4.314;2022-11-22T06:23:40;5.73;;;1.67;;
18159;SDS011;9205;52.032;4.314;2022-11-22T06:26:08;3.80;;;1.50;;
18159;SDS011;9205;52.032;4.314;2022-11-22T06:28:37;2.73;;;2.10;;
18159;SDS011;9205;52.032;4.314;2022-11-22T06:31:06;5.50;;;2.50;;
18159;SDS011;9205;52.032;4.314;2022-11-22T06:33:36;2.83;;;2.20;;
18159;SDS011;9205;52.032;4.314;2022-11-22T06:36:07;5.13;;;2.20;;
18159;SDS011;9205;52.032;4.314;2022-11-22T06:38:37;4.67;;;2.30;;
18159;SDS011;9205;52.032;4.314;2022-11-22T06:41:07;2.83;;;2.03;;
18159;SDS011;9205;52.032;4.314;2022-11-22T06:43:36;3.00;;;2.40;;
18159;SDS011;9205;52.032;4.314;2022-11-22T06:46:06;4.10;;;2.17;;
18159;SDS011;9205;52.032;4.314;2022-11-22T06:48:36;4.53;;;1.70;;
18159;SDS011;9205;52.032;4.314;2022-11-22T06:51:05;6.83;;;1.93;;
18159;SDS011;9205;52.032;4.314;2022-11-22T06:53:39;4.40;;;1.70;;
18159;SDS011;9205;52.032;4.314;2022-11-22T06:56:09;3.40;;;1.87;;
18159;SDS011;9205;52.032;4.314;2022-11-22T06:58:39;3.27;;;1.97;;
18159;SDS011;9205;52.032;4.314;2022-11-22T07:01:08;3.33;;;2.00;;
18159;SDS011;9205;52.032;4.314;2022-11-22T07:03:38;4.10;;;1.80;;
18159;SDS011;9205;52.032;4.314;2022-11-22T07:06:11;4.13;;;2.40;;
18159;SDS011;9205;52.032;4.314;2022-11-22T07:08:40;4.73;;;2.27;;
18159;SDS011;9205;52.032;4.314;2022-11-22T07:11:09;8.27;;;3.00;;
18159;SDS011;9205;52.032;4.314;2022-11-22T07:13:39;3.50;;;2.27;;
18159;SDS011;9205;52.032;4.314;2022-11-22T07:16:07;3.70;;;2.10;;
18159;SDS011;9205;52.032;4.314;2022-11-22T07:18:38;8.43;;;1.97;;
18159;SDS011;9205;52.032;4.314;2022-11-22T07:21:06;2.60;;;1.77;;
18159;SDS011;9205;52.032;4.314;2022-11-22T07:23:38;3.20;;;1.70;;
18159;SDS011;9205;52.032;4.314;2022-11-22T07:26:09;5.87;;;2.37;;
18159;SDS011;9205;52.032;4.314;2022-11-22T07:28:38;3.03;;;2.00;;
18159;SDS011;9205;52.032;4.314;2022-11-22T07:31:06;2.00;;;1.80;;
18159;SDS011;9205;52.032;4.314;2022-11-22T07:33:35;5.97;;;2.07;;
18159;SDS011;9205;52.032;4.314;2022-11-22T07:36:03;3.27;;;1.80;;
18159;SDS011;9205;52.032;4.314;2022-11-22T07:38:34;5.23;;;2.13;;
18159;SDS011;9205;52.032;4.314;2022-11-22T07:41:01;2.30;;;1.70;;
18159;SDS011;9205;52.032;4.314;2022-11-22T07:43:29;2.83;;;1.73;;
18159;SDS011;9205;52.032;4.314;2022-11-22T07:45:57;2.60;;;1.90;;
18159;SDS011;9205;52.032;4.314;2022-11-22T07:48:24;1.80;;;1.70;;
18159;SDS011;9205;52.032;4.314;2022-11-22T07:50:52;6.73;;;1.83;;
18159;SDS011;9205;52.032;4.314;2022-11-22T07:53:19;4.83;;;1.77;;
18159;SDS011;9205;52.032;4.314;2022-11-22T07:55:47;1.97;;;1.60;;
18159;SDS011;9205;52.032;4.314;2022-11-22T07:58:15;6.00;;;1.37;;
18159;SDS011;9205;52.032;4.314;2022-11-22T08:00:42;2.60;;;1.70;;
18159;SDS011;9205;52.032;4.314;2022-11-22T08:03:09;2.90;;;1.67;;
18159;SDS011;9205;52.032;4.314;2022-11-22T08:05:37;4.60;;;2.00;;
18159;SDS011;9205;52.032;4.314;2022-11-22T08:08:05;1.87;;;1.37;;
18159;SDS011;9205;52.032;4.314;2022-11-22T08:10:32;5.40;;;1.70;;
18159;SDS011;9205;52.032;4.314;2022-11-22T08:13:00;2.13;;;1.40;;
18159;SDS011;9205;52.032;4.314;2022-11-22T08:15:30;4.47;;;1.47;;
18159;SDS011;9205;52.032;4.314;2022-11-22T08:17:58;6.30;;;1.80;;
18159;SDS011;9205;52.032;4.314;2022-11-22T08:20:26;3.13;;;1.60;;
18159;SDS011;9205;52.032;4.314;2022-11-22T08:22:53;3.00;;;1.53;;
18159;SDS011;9205;52.032;4.314;2022-11-22T08:25:20;3.20;;;1.63;;
18159;SDS011;9205;52.032;4.314;2022-11-22T08:27:47;2.40;;;1.70;;
18159;SDS011;9205;52.032;4.314;2022-11-22T08:30:17;2.47;;;1.60;;
18159;SDS011;9205;52.032;4.314;2022-11-22T08:32:44;3.60;;;1.80;;
18159;SDS011;9205;52.032;4.314;2022-11-22T08:35:11;5.87;;;2.00;;
18159;SDS011;9205;52.032;4.314;2022-11-22T08:37:39;4.37;;;1.93;;
18159;SDS011;9205;52.032;4.314;2022-11-22T08:40:07;2.70;;;1.60;;
18159;SDS011;9205;52.032;4.314;2022-11-22T08:42:35;2.37;;;2.10;;
18159;SDS011;9205;52.032;4.314;2022-11-22T08:45:03;5.63;;;2.07;;
18159;SDS011;9205;52.032;4.314;2022-11-22T08:47:33;6.27;;;2.00;;
18159;SDS011;9205;52.032;4.314;2022-11-22T08:50:00;2.90;;;1.87;;
18159;SDS011;9205;52.032;4.314;2022-11-22T08:52:28;7.23;;;2.00;;
18159;SDS011;9205;52.032;4.314;2022-11-22T08:54:55;2.53;;;1.87;;
18159;SDS011;9205;52.032;4.314;2022-11-22T08:57:22;4.37;;;2.30;;
18159;SDS011;9205;52.032;4.314;2022-11-22T08:59:50;2.80;;;2.10;;
18159;SDS011;9205;52.032;4.314;2022-11-22T09:02:17;2.87;;;2.00;;
18159;SDS011;9205;52.032;4.314;2022-11-22T09:04:45;2.47;;;1.70;;
18159;SDS011;9205;52.032;4.314;2022-11-22T09:07:12;2.87;;;1.53;;
18159;SDS011;9205;52.032;4.314;2022-11-22T09:09:39;2.53;;;1.80;;
18159;SDS011;9205;52.032;4.314;2022-11-22T09:12:07;4.13;;;1.73;;
18159;SDS011;9205;52.032;4.314;2022-11-22T09:14:34;4.43;;;1.70;;
18159;SDS011;9205;52.032;4.314;2022-11-22T09:17:01;6.43;;;2.30;;
18159;SDS011;9205;52.032;4.314;2022-11-22T09:19:29;2.50;;;1.57;;
18159;SDS011;9205;52.032;4.314;2022-11-22T09:21:59;3.03;;;1.50;;
18159;SDS011;9205;52.032;4.314;2022-11-22T09:24:26;5.77;;;1.87;;
18159;SDS011;9205;52.032;4.314;2022-11-22T09:26:54;3.63;;;1.87;;
18159;SDS011;9205;52.032;4.314;2022-11-22T09:29:21;4.53;;;1.87;;
18159;SDS011;9205;52.032;4.314;2022-11-22T09:31:49;2.50;;;1.67;;
18159;SDS011;9205;52.032;4.314;2022-11-22T09:34:16;3.57;;;1.73;;
18159;SDS011;9205;52.032;4.314;2022-11-22T09:36:44;3.90;;;1.60;;
18159;SDS011;9205;52.032;4.314;2022-11-22T09:39:12;2.00;;;1.40;;
18159;SDS011;9205;52.032;4.314;2022-11-22T09:41:45;8.90;;;1.80;;
18159;SDS011;9205;52.032;4.314;2022-11-22T09:44:52;1.73;;;1.37;;
18159;SDS011;9205;52.032;4.314;2022-11-22T09:47:59;4.43;;;1.57;;
18159;SDS011;9205;52.032;4.314;2022-11-22T09:50:41;6.60;;;2.13;;
18159;SDS011;9205;52.032;4.314;2022-11-22T09:53:22;2.60;;;1.60;;
18159;SDS011;9205;52.032;4.314;2022-11-22T09:56:04;4.70;;;1.73;;
18159;SDS011;9205;52.032;4.314;2022-11-22T09:58:37;6.33;;;1.60;;
18159;SDS011;9205;52.032;4.314;2022-11-22T10:01:12;2.40;;;1.50;;
18159;SDS011;9205;52.032;4.314;2022-11-22T10:03:46;6.23;;;2.33;;
18159;SDS011;9205;52.032;4.314;2022-11-22T10:06:21;2.10;;;1.40;;
18159;SDS011;9205;52.032;4.314;2022-11-22T10:08:56;2.70;;;1.70;;
18159;SDS011;9205;52.032;4.314;2022-11-22T10:11:43;1.73;;;1.17;;
18159;SDS011;9205;52.032;4.314;2022-11-22T10:14:21;5.77;;;1.50;;
18159;SDS011;9205;52.032;4.314;2022-11-22T10:17:02;1.40;;;1.20;;
18159;SDS011;9205;52.032;4.314;2022-11-22T10:19:49;2.73;;;1.50;;
18159;SDS011;9205;52.032;4.314;2022-11-22T10:22:24;2.17;;;1.20;;
18159;SDS011;9205;52.032;4.314;2022-11-22T10:24:55;2.90;;;1.20;;
18159;SDS011;9205;52.032;4.314;2022-11-22T10:27:27;3.43;;;1.63;;
18159;SDS011;9205;52.032;4.314;2022-11-22T10:29:59;3.53;;;1.37;;
18159;SDS011;9205;52.032;4.314;2022-11-22T10:32:33;1.37;;;1.27;;
18159;SDS011;9205;52.032;4.314;2022-11-22T10:35:10;1.53;;;1.17;;
18159;SDS011;9205;52.032;4.314;2022-11-22T10:38:06;5.20;;;1.63;;
18159;SDS011;9205;52.032;4.314;2022-11-22T10:41:09;2.60;;;1.10;;
18159;SDS011;9205;52.032;4.314;2022-11-22T10:43:58;1.63;;;1.20;;
18159;SDS011;9205;52.032;4.314;2022-11-22T10:46:44;1.60;;;1.33;;
18159;SDS011;9205;52.032;4.314;2022-11-22T10:49:22;2.77;;;1.27;;
18159;SDS011;9205;52.032;4.314;2022-11-22T10:52:08;2.70;;;1.50;;
18159;SDS011;9205;52.032;4.314;2022-11-22T10:54:51;2.33;;;1.60;;
18159;SDS011;9205;52.032;4.314;2022-11-22T10:57:32;3.57;;;1.20;;
18159;SDS011;9205;52.032;4.314;2022-11-22T11:00:17;2.17;;;1.30;;
18159;SDS011;9205;52.032;4.314;2022-11-22T11:03:00;2.40;;;1.00;;
18159;SDS011;9205;52.032;4.314;2022-11-22T11:05:46;4.77;;;1.90;;
18159;SDS011;9205;52.032;4.314;2022-11-22T11:08:23;2.53;;;1.63;;
18159;SDS011;9205;52.032;4.314;2022-11-22T11:10:59;2.10;;;1.43;;
18159;SDS011;9205;52.032;4.314;2022-11-22T11:13:28;1.47;;;1.20;;
18159;SDS011;9205;52.032;4.314;2022-11-22T11:16:02;4.37;;;1.67;;
18159;SDS011;9205;52.032;4.314;2022-11-22T11:18:37;1.80;;;1.30;;
18159;SDS011;9205;52.032;4.314;2022-11-22T11:21:12;3.00;;;1.43;;
18159;SDS011;9205;52.032;4.314;2022-11-22T11:23:40;2.33;;;1.33;;
18159;SDS011;9205;52.032;4.314;2022-11-22T11:26:18;2.00;;;1.33;;
18159;SDS011;9205;52.032;4.314;2022-11-22T11:28:50;2.67;;;1.30;;
18159;SDS011;9205;52.032;4.314;2022-11-22T11:32:13;1.87;;;1.30;;
18159;SDS011;9205;52.032;4.314;2022-11-22T11:34:47;5.37;;;1.90;;
18159;SDS011;9205;52.032;4.314;2022-11-22T11:37:22;5.30;;;1.60;;
18159;SDS011;9205;52.032;4.314;2022-11-22T11:39:52;4.63;;;1.43;;
18159;SDS011;9205;52.032;4.314;2022-11-22T11:42:20;3.67;;;1.57;;
18159;SDS011;9205;52.032;4.314;2022-11-22T11:45:18;2.03;;;1.60;;
18159;SDS011;9205;52.032;4.314;2022-11-22T11:47:54;4.03;;;1.70;;
18159;SDS011;9205;52.032;4.314;2022-11-22T11:50:23;3.90;;;1.60;;
18159;SDS011;9205;52.032;4.314;2022-11-22T11:52:52;6.97;;;1.80;;
18159;SDS011;9205;52.032;4.314;2022-11-22T11:55:29;3.60;;;1.53;;
18159;SDS011;9205;52.032;4.314;2022-11-22T11:57:59;2.03;;;1.40;;
18159;SDS011;9205;52.032;4.314;2022-11-22T12:00:33;2.90;;;1.60;;
18159;SDS011;9205;52.032;4.314;2022-11-22T12:03:05;3.03;;;1.50;;
18159;SDS011;9205;52.032;4.314;2022-11-22T12:05:39;2.90;;;1.50;;
18159;SDS011;9205;52.032;4.314;2022-11-22T12:08:16;2.30;;;1.40;;
18159;SDS011;9205;52.032;4.314;2022-11-22T12:10:56;4.63;;;1.53;;
18159;SDS011;9205;52.032;4.314;2022-11-22T12:13:34;2.40;;;1.60;;
18159;SDS011;9205;52.032;4.314;2022-11-22T12:16:10;4.80;;;1.30;;
18159;SDS011;9205;52.032;4.314;2022-11-22T12:18:49;2.10;;;1.70;;
18159;SDS011;9205;52.032;4.314;2022-11-22T12:21:28;3.17;;;1.70;;
18159;SDS011;9205;52.032;4.314;2022-11-22T12:24:10;2.80;;;1.30;;
18159;SDS011;9205;52.032;4.314;2022-11-22T12:26:45;2.50;;;1.30;;
18159;SDS011;9205;52.032;4.314;2022-11-22T12:29:13;4.57;;;1.90;;
18159;SDS011;9205;52.032;4.314;2022-11-22T12:31:43;2.10;;;1.40;;
18159;SDS011;9205;52.032;4.314;2022-11-22T12:34:19;2.53;;;1.50;;
18159;SDS011;9205;52.032;4.314;2022-11-22T12:36:54;3.93;;;1.77;;
18159;SDS011;9205;52.032;4.314;2022-11-22T12:39:31;4.40;;;1.53;;
18159;SDS011;9205;52.032;4.314;2022-11-22T12:42:02;2.53;;;1.50;;
18159;SDS011;9205;52.032;4.314;2022-11-22T12:44:40;2.27;;;1.50;;
18159;SDS011;9205;52.032;4.314;2022-11-22T12:47:15;5.37;;;1.40;;
18159;SDS011;9205;52.032;4.314;2022-11-22T12:49:50;2.20;;;1.40;;
18159;SDS011;9205;52.032;4.314;2022-11-22T12:52:22;1.20;;;1.10;;
18159;SDS011;9205;52.032;4.314;2022-11-22T12:54:59;1.83;;;1.37;;
18159;SDS011;9205;52.032;4.314;2022-11-22T12:57:33;2.23;;;1.33;;
18159;SDS011;9205;52.032;4.314;2022-11-22T13:00:11;1.53;;;1.40;;
18159;SDS011;9205;52.032;4.314;2022-11-22T13:02:43;1.23;;;1.13;;
18159;SDS011;9205;52.032;4.314;2022-11-22T13:05:24;3.40;;;1.50;;
18159;SDS011;9205;52.032;4.314;2022-11-22T13:07:56;2.60;;;1.40;;
18159;SDS011;9205;52.032;4.314;2022-11-22T13:10:35;3.17;;;1.40;;
18159;SDS011;9205;52.032;4.314;2022-11-22T13:13:09;2.83;;;1.73;;
18159;SDS011;9205;52.032;4.314;2022-11-22T13:15:48;3.20;;;1.70;;
18159;SDS011;9205;52.032;4.314;2022-11-22T13:18:26;1.33;;;1.23;;
18159;SDS011;9205;52.032;4.314;2022-11-22T13:21:01;2.43;;;1.30;;
18159;SDS011;9205;52.032;4.314;2022-11-22T13:23:50;3.00;;;1.27;;
18159;SDS011;9205;52.032;4.314;2022-11-22T13:26:48;1.87;;;1.27;;
18159;SDS011;9205;52.032;4.314;2022-11-22T13:29:27;2.03;;;1.50;;
18159;SDS011;9205;52.032;4.314;2022-11-22T13:32:03;2.00;;;1.40;;
18159;SDS011;9205;52.032;4.314;2022-11-22T13:34:42;4.63;;;1.70;;
18159;SDS011;9205;52.032;4.314;2022-11-22T13:37:32;4.33;;;1.33;;
18159;SDS011;9205;52.032;4.314;2022-11-22T13:40:08;2.57;;;1.63;;
18159;SDS011;9205;52.032;4.314;2022-11-22T13:45:56;2.50;;;1.50;;
18159;SDS011;9205;52.032;4.314;2022-11-22T13:51:49;2.60;;;1.50;;
18159;SDS011;9205;52.032;4.314;2022-11-22T13:57:52;3.50;;;1.80;;
18159;SDS011;9205;52.032;4.314;2022-11-22T14:06:19;2.87;;;1.53;;
18159;SDS011;9205;52.032;4.314;2022-11-22T14:12:05;1.53;;;1.30;;
18159;SDS011;9205;52.032;4.314;2022-11-22T14:15:05;2.20;;;1.40;;
18159;SDS011;9205;52.032;4.314;2022-11-22T14:17:53;1.60;;;1.30;;
18159;SDS011;9205;52.032;4.314;2022-11-22T14:20:41;2.03;;;1.30;;
18159;SDS011;9205;52.032;4.314;2022-11-22T14:23:26;1.27;;;1.17;;
18159;SDS011;9205;52.032;4.314;2022-11-22T14:26:11;5.10;;;1.77;;
18159;SDS011;9205;52.032;4.314;2022-11-22T14:32:12;3.00;;;1.37;;
18159;SDS011;9205;52.032;4.314;2022-11-22T14:37:56;1.37;;;1.27;;
18159;SDS011;9205;52.032;4.314;2022-11-22T14:40:34;3.10;;;1.30;;
18159;SDS011;9205;52.032;4.314;2022-11-22T14:43:03;1.40;;;1.30;;
18159;SDS011;9205;52.032;4.314;2022-11-22T14:45:51;1.70;;;1.37;;
18159;SDS011;9205;52.032;4.314;2022-11-22T14:48:21;4.50;;;1.40;;
18159;SDS011;9205;52.032;4.314;2022-11-22T14:51:00;3.60;;;1.80;;
18159;SDS011;9205;52.032;4.314;2022-11-22T14:53:35;2.13;;;1.20;;
18159;SDS011;9205;52.032;4.314;2022-11-22T14:56:13;1.67;;;1.27;;
18159;SDS011;9205;52.032;4.314;2022-11-22T14:58:45;1.63;;;1.27;;
18159;SDS011;9205;52.032;4.314;2022-11-22T15:01:32;2.33;;;1.40;;
18159;SDS011;9205;52.032;4.314;2022-11-22T15:04:36;1.73;;;1.50;;
18159;SDS011;9205;52.032;4.314;2022-11-22T15:10:38;1.60;;;1.50;;
18159;SDS011;9205;52.032;4.314;2022-11-22T15:13:36;2.20;;;1.30;;
18159;SDS011;9205;52.032;4.314;2022-11-22T15:16:36;1.70;;;1.50;;
18159;SDS011;9205;52.032;4.314;2022-11-22T15:19:10;1.30;;;1.20;;
18159;SDS011;9205;52.032;4.314;2022-11-22T15:22:05;1.43;;;1.33;;
18159;SDS011;9205;52.032;4.314;2022-11-22T15:24:37;2.30;;;1.60;;
18159;SDS011;9205;52.032;4.314;2022-11-22T15:27:16;2.07;;;1.40;;
18159;SDS011;9205;52.032;4.314;2022-11-22T15:29:47;2.40;;;1.40;;
18159;SDS011;9205;52.032;4.314;2022-11-22T15:32:33;2.10;;;1.40;;
18159;SDS011;9205;52.032;4.314;2022-11-22T15:35:10;1.97;;;1.27;;
18159;SDS011;9205;52.032;4.314;2022-11-22T15:37:43;1.73;;;1.33;;
18159;SDS011;9205;52.032;4.314;2022-11-22T15:40:18;1.90;;;1.50;;
18159;SDS011;9205;52.032;4.314;2022-11-22T15:42:51;2.67;;;1.60;;
18159;SDS011;9205;52.032;4.314;2022-11-22T15:45:22;2.80;;;1.53;;
18159;SDS011;9205;52.032;4.314;2022-11-22T15:47:55;2.70;;;1.40;;
18159;SDS011;9205;52.032;4.314;2022-11-22T15:50:25;6.43;;;1.60;;
18159;SDS011;9205;52.032;4.314;2022-11-22T15:52:53;2.63;;;1.43;;
18159;SDS011;9205;52.032;4.314;2022-11-22T15:55:32;3.53;;;1.60;;
18159;SDS011;9205;52.032;4.314;2022-11-22T15:58:03;3.07;;;1.70;;
18159;SDS011;9205;52.032;4.314;2022-11-22T16:00:37;2.43;;;1.40;;